Time;durP1;ratioP1;P1;durP2;ratioP2;P2;SDS_P1;SDS_P2;PMS_P1;PMS_P2;Temp;Humidity;BMP_temperature;BMP_pressure;BME280_temperature;BME280_humidity;BME280_pressure;Samples;Min_cycle;Max_cycle;Signal;HPM_P1;HPM_P2
2022/10/12 00:00:04;;;;;;;;;;;9.00;99.90;;;;;;4991185;28;19930;-73
2022/10/12 00:02:30;;;;;;;;;;;9.00;99.90;;;;;;4992747;28;19926;-73
2022/10/12 00:04:55;;;;;;;;;;;9.00;99.90;;;;;;4991593;28;20377;-73
2022/10/12 00:07:21;;;;;;;;;;;8.90;99.90;;;;;;4992924;28;19926;-73
2022/10/12 00:09:46;;;;;;;;;;;8.90;99.90;;;;;;4991706;28;19926;-73
2022/10/12 00:12:12;;;;;;;;;;;8.90;99.90;;;;;;4992730;28;20009;-74
2022/10/12 00:14:37;;;;;;;;;;;8.90;99.90;;;;;;4993755;28;19922;-75
2022/10/12 00:17:03;;;;;;;;;;;8.90;99.90;;;;;;4992117;28;19933;-74
2022/10/12 00:19:29;;;;;;;;;;;8.90;99.90;;;;;;4992612;28;20272;-73
2022/10/12 00:21:54;;;;;;;;;;;8.90;99.90;;;;;;4992332;28;20272;-73
2022/10/12 00:24:20;;;;;;;;;;;8.90;99.90;;;;;;4992796;28;19944;-74
2022/10/12 00:26:48;;;;;;;;;;;8.90;99.90;;;;;;4992599;28;19926;-73
2022/10/12 00:29:13;;;;;;;;;;;8.90;99.90;;;;;;4991128;28;19930;-73
2022/10/12 00:31:39;;;;;;;;;;;8.80;99.90;;;;;;4990710;28;19933;-74
2022/10/12 00:34:04;;;;;;;;;;;8.80;99.90;;;;;;4991917;28;20009;-74
2022/10/12 00:36:34;;;;;;;;;;;8.80;99.90;;;;;;4991522;28;20191;-74
2022/10/12 00:39:02;;;;;;;;;;;8.80;99.90;;;;;;4991323;28;19925;-74
2022/10/12 00:41:29;;;;;;;;;;;8.80;99.90;;;;;;4991964;28;20387;-74
2022/10/12 00:43:54;;;;;;;;;;;8.80;99.90;;;;;;4992115;28;19926;-73
2022/10/12 00:46:23;;;;;;;;;;;8.80;99.90;;;;;;4991097;28;19949;-74
2022/10/12 00:48:51;;;;;;;;;;;8.80;99.90;;;;;;4991367;28;19941;-74
2022/10/12 00:51:18;;;;;;;;;;;8.80;99.90;;;;;;4991877;28;19977;-74
2022/10/12 00:53:47;;;;;;;;;;;8.70;99.90;;;;;;4992187;28;20004;-74
2022/10/12 00:56:17;;;;;;;;;;;8.70;99.90;;;;;;4991733;28;20314;-74
2022/10/12 00:58:43;;;;;;;;;;;8.80;99.90;;;;;;4990617;28;20044;-74
2022/10/12 01:01:09;;;;;;;;;;;8.70;99.90;;;;;;4974597;28;19926;-74
2022/10/12 01:03:35;;;;;;;;;;;8.70;99.90;;;;;;4991221;28;19952;-74
2022/10/12 01:06:01;;;;;;;;;;;8.70;99.90;;;;;;4990431;28;19936;-74
2022/10/12 01:08:27;;;;;;;;;;;8.70;99.90;;;;;;4992037;28;19922;-74
2022/10/12 01:10:54;;;;;;;;;;;8.70;99.90;;;;;;4991986;28;19975;-74
2022/10/12 01:13:20;;;;;;;;;;;8.60;99.90;;;;;;4991592;28;19986;-74
2022/10/12 01:15:53;;;;;;;;;;;8.60;99.90;;;;;;4990726;28;20340;-74
2022/10/12 01:18:32;;;;;;;;;;;8.60;99.90;;;;;;4990030;28;20323;-74
2022/10/12 01:21:01;;;;;;;;;;;8.60;99.90;;;;;;4991742;28;20001;-74
2022/10/12 01:23:51;;;;;;;;;;;8.60;99.90;;;;;;4991575;28;19926;-74
2022/10/12 01:26:23;;;;;;;;;;;8.60;99.90;;;;;;4990446;28;19925;-73
2022/10/12 01:28:48;;;;;;;;;;;8.70;99.90;;;;;;4990591;28;19986;-74
2022/10/12 01:31:23;;;;;;;;;;;8.50;99.90;;;;;;4989790;28;20351;-73
2022/10/12 01:33:52;;;;;;;;;;;8.50;99.90;;;;;;5023385;28;19926;-74
2022/10/12 01:36:29;;;;;;;;;;;8.40;99.90;;;;;;4991231;28;19930;-74
2022/10/12 01:38:58;;;;;;;;;;;8.50;99.90;;;;;;5026242;28;20012;-74
2022/10/12 01:41:30;;;;;;;;;;;8.50;99.90;;;;;;4993953;28;19926;-73
2022/10/12 01:43:55;;;;;;;;;;;8.50;99.90;;;;;;5025263;28;20034;-74
2022/10/12 01:46:24;;;;;;;;;;;8.40;99.90;;;;;;4990839;28;20107;-73
2022/10/12 01:48:52;;;;;;;;;;;8.40;99.90;;;;;;4991944;28;19933;-74
2022/10/12 01:51:23;;;;;;;;;;;8.40;99.90;;;;;;4990188;28;19948;-75
2022/10/12 01:53:56;;;;;;;;;;;8.40;99.90;;;;;;4973752;28;19977;-75
2022/10/12 01:56:27;;;;;;;;;;;8.40;99.90;;;;;;4990217;28;19925;-74
2022/10/12 01:59:08;;;;;;;;;;;8.40;99.90;;;;;;4991301;28;20027;-75
2022/10/12 02:01:51;;;;;;;;;;;8.30;99.90;;;;;;4991474;28;20384;-75
2022/10/12 02:04:22;;;;;;;;;;;8.30;99.90;;;;;;4991010;28;19933;-74
2022/10/12 02:06:51;;;;;;;;;;;8.30;99.90;;;;;;4989868;28;20394;-74
2022/10/12 02:09:19;;;;;;;;;;;8.30;99.90;;;;;;4990492;28;19992;-74
2022/10/12 02:11:47;;;;;;;;;;;8.30;99.90;;;;;;4990852;28;19932;-75
2022/10/12 02:14:17;;;;;;;;;;;8.30;99.90;;;;;;4989660;28;20068;-74
2022/10/12 02:16:46;;;;;;;;;;;8.30;99.90;;;;;;4990959;28;20229;-75
2022/10/12 02:19:14;;;;;;;;;;;8.30;99.90;;;;;;4990731;28;19926;-74
2022/10/12 02:21:40;;;;;;;;;;;8.10;99.90;;;;;;5005609;28;19933;-75
2022/10/12 02:24:07;;;;;;;;;;;8.30;99.90;;;;;;4991023;28;19922;-75
2022/10/12 02:26:34;;;;;;;;;;;8.30;99.90;;;;;;5006107;28;20127;-74
2022/10/12 02:29:00;;;;;;;;;;;8.30;99.90;;;;;;4973618;28;19925;-75
2022/10/12 02:31:35;;;;;;;;;;;8.30;99.90;;;;;;4990240;28;19926;-75
2022/10/12 02:34:00;;;;;;;;;;;8.30;99.90;;;;;;4990816;28;19933;-75
2022/10/12 02:36:38;;;;;;;;;;;8.30;99.90;;;;;;4990324;28;19926;-75
2022/10/12 02:39:06;;;;;;;;;;;8.30;99.90;;;;;;4989696;28;19926;-75
2022/10/12 02:41:42;;;;;;;;;;;8.30;99.90;;;;;;5022124;28;19926;-75
2022/10/12 02:44:10;;;;;;;;;;;8.30;99.90;;;;;;4989299;28;19933;-75
2022/10/12 02:46:37;;;;;;;;;;;8.40;99.90;;;;;;5005708;28;19926;-75
2022/10/12 02:49:03;;;;;;;;;;;8.40;99.90;;;;;;4990329;28;20421;-75
2022/10/12 02:51:30;;;;;;;;;;;8.40;99.90;;;;;;4990038;28;20036;-75
2022/10/12 02:53:55;;;;;;;;;;;8.50;99.90;;;;;;4988824;28;19925;-75
2022/10/12 02:56:22;;;;;;;;;;;8.50;99.90;;;;;;4989169;28;19975;-74
2022/10/12 02:58:47;;;;;;;;;;;8.50;99.90;;;;;;4990328;28;19925;-74
2022/10/12 03:01:15;;;;;;;;;;;8.50;99.90;;;;;;4991208;28;19937;-74
2022/10/12 03:03:41;;;;;;;;;;;8.50;99.90;;;;;;4990467;28;19930;-75
2022/10/12 03:06:07;;;;;;;;;;;8.50;99.90;;;;;;5005425;28;19926;-75
2022/10/12 03:08:33;;;;;;;;;;;8.50;99.90;;;;;;4972946;28;19930;-74
2022/10/12 03:11:02;;;;;;;;;;;8.50;99.90;;;;;;4989087;28;20305;-75
2022/10/12 03:13:28;;;;;;;;;;;8.50;99.90;;;;;;4972583;28;20008;-74
2022/10/12 03:15:59;;;;;;;;;;;8.40;99.90;;;;;;4988893;28;20029;-75
2022/10/12 03:18:25;;;;;;;;;;;8.50;99.90;;;;;;4988636;28;20287;-75
2022/10/12 03:20:50;;;;;;;;;;;8.40;99.90;;;;;;4990518;28;19926;-75
2022/10/12 03:23:16;;;;;;;;;;;8.40;99.90;;;;;;4993526;28;19926;-74
2022/10/12 03:25:41;;;;;;;;;;;8.40;99.90;;;;;;4976145;28;20395;-75
2022/10/12 03:28:07;;;;;;;;;;;8.40;99.90;;;;;;4992595;28;19948;-75
2022/10/12 03:30:32;;;;;;;;;;;8.30;99.90;;;;;;4991846;28;19930;-75
2022/10/12 03:32:58;;;;;;;;;;;8.30;99.90;;;;;;4992267;28;20017;-75
2022/10/12 03:35:24;;;;;;;;;;;8.40;99.90;;;;;;4992972;28;19933;-75
2022/10/12 03:37:50;;;;;;;;;;;8.30;99.90;;;;;;4975981;28;20021;-75
2022/10/12 03:40:15;;;;;;;;;;;8.20;99.90;;;;;;4993262;28;20016;-75
2022/10/12 03:42:41;;;;;;;;;;;8.10;99.90;;;;;;4993145;28;19926;-75
2022/10/12 03:45:08;;;;;;;;;;;8.10;99.90;;;;;;4992635;28;19926;-75
2022/10/12 03:47:33;;;;;;;;;;;8.00;99.90;;;;;;5008357;28;19930;-74
2022/10/12 03:49:59;;;;;;;;;;;8.00;99.90;;;;;;4992140;28;19937;-75
2022/10/12 03:52:24;;;;;;;;;;;8.00;99.90;;;;;;4992596;28;20012;-75
2022/10/12 03:54:50;;;;;;;;;;;8.00;99.90;;;;;;4992931;28;19925;-75
2022/10/12 03:57:15;;;;;;;;;;;8.00;99.90;;;;;;4991727;28;19976;-75
2022/10/12 03:59:41;;;;;;;;;;;8.00;99.90;;;;;;4975609;28;19984;-75
2022/10/12 04:02:07;;;;;;;;;;;8.00;99.90;;;;;;4991289;28;19926;-76
2022/10/12 04:04:32;;;;;;;;;;;7.90;99.90;;;;;;4991586;28;19930;-75
2022/10/12 04:06:58;;;;;;;;;;;7.90;99.90;;;;;;4991671;28;19933;-75
2022/10/12 04:09:24;;;;;;;;;;;8.00;99.90;;;;;;4991192;28;19930;-75
2022/10/12 04:11:49;;;;;;;;;;;8.00;99.90;;;;;;4992184;28;20065;-75
2022/10/12 04:14:15;;;;;;;;;;;8.00;99.90;;;;;;4994044;28;19945;-75
2022/10/12 04:16:40;;;;;;;;;;;8.00;99.90;;;;;;4991929;28;19926;-75
2022/10/12 04:19:07;;;;;;;;;;;8.00;99.90;;;;;;4992649;28;20001;-76
2022/10/12 04:21:33;;;;;;;;;;;8.00;99.90;;;;;;4992198;28;19977;-75
2022/10/12 04:23:59;;;;;;;;;;;8.00;99.90;;;;;;4975456;28;20397;-76
2022/10/12 04:26:24;;;;;;;;;;;8.10;99.90;;;;;;4976668;28;19961;-75
2022/10/12 04:28:50;;;;;;;;;;;8.10;99.90;;;;;;4992856;28;19925;-75
2022/10/12 04:31:15;;;;;;;;;;;8.10;99.90;;;;;;4992223;28;20286;-76
2022/10/12 04:33:41;;;;;;;;;;;8.10;99.90;;;;;;4991849;28;19926;-75
2022/10/12 04:36:07;;;;;;;;;;;8.10;99.90;;;;;;4991457;28;19926;-74
2022/10/12 04:38:32;;;;;;;;;;;8.10;99.90;;;;;;4991364;28;20301;-74
2022/10/12 04:40:58;;;;;;;;;;;8.10;99.90;;;;;;4991462;28;20024;-74
2022/10/12 04:43:23;;;;;;;;;;;8.10;99.90;;;;;;4992318;28;20296;-74
2022/10/12 04:45:53;;;;;;;;;;;8.10;99.90;;;;;;4990758;28;19925;-74
2022/10/12 04:48:18;;;;;;;;;;;8.10;99.90;;;;;;4991269;28;19933;-74
2022/10/12 04:50:44;;;;;;;;;;;8.20;99.90;;;;;;4974566;28;19926;-75
2022/10/12 04:53:09;;;;;;;;;;;8.10;99.90;;;;;;4990621;28;19929;-75
2022/10/12 04:55:36;;;;;;;;;;;8.10;99.90;;;;;;4990769;28;19926;-74
2022/10/12 04:58:01;;;;;;;;;;;8.00;99.90;;;;;;5023743;28;19926;-74
2022/10/12 05:00:27;;;;;;;;;;;8.00;99.90;;;;;;4974808;28;20017;-74
2022/10/12 05:02:53;;;;;;;;;;;8.00;99.90;;;;;;5023853;28;20378;-75
2022/10/12 05:05:18;;;;;;;;;;;8.00;99.90;;;;;;4974773;28;19926;-74
2022/10/12 05:07:44;;;;;;;;;;;7.90;99.90;;;;;;4990250;28;19926;-74
2022/10/12 05:10:09;;;;;;;;;;;7.90;99.90;;;;;;4974460;28;19991;-75
2022/10/12 05:12:35;;;;;;;;;;;7.90;99.90;;;;;;4990852;28;20268;-74
2022/10/12 05:15:00;;;;;;;;;;;7.90;99.90;;;;;;4991630;28;19949;-74
2022/10/12 05:17:26;;;;;;;;;;;7.90;99.90;;;;;;4990885;28;19926;-75
2022/10/12 05:19:52;;;;;;;;;;;7.90;99.90;;;;;;4990526;28;20267;-75
2022/10/12 05:22:17;;;;;;;;;;;7.90;99.90;;;;;;4990481;28;19972;-74
2022/10/12 05:24:43;;;;;;;;;;;7.90;99.90;;;;;;4973836;28;19937;-74
2022/10/12 05:27:08;;;;;;;;;;;7.80;99.90;;;;;;4974584;28;20025;-74
2022/10/12 05:29:34;;;;;;;;;;;7.80;99.90;;;;;;4974343;28;20239;-73
2022/10/12 05:32:00;;;;;;;;;;;7.80;99.90;;;;;;4991799;28;19970;-74
2022/10/12 05:34:25;;;;;;;;;;;7.70;99.90;;;;;;4974532;28;19933;-75
2022/10/12 05:36:51;;;;;;;;;;;7.70;99.90;;;;;;4990959;28;19933;-74
2022/10/12 05:39:16;;;;;;;;;;;7.70;99.90;;;;;;4991329;28;19930;-74
2022/10/12 05:41:42;;;;;;;;;;;7.70;99.90;;;;;;5022561;28;19929;-74
2022/10/12 05:44:07;;;;;;;;;;;7.70;99.90;;;;;;4989159;28;19925;-74
2022/10/12 05:46:33;;;;;;;;;;;7.70;99.90;;;;;;4989992;28;19926;-74
2022/10/12 05:48:58;;;;;;;;;;;7.70;99.90;;;;;;4991628;28;20327;-73
2022/10/12 05:51:24;;;;;;;;;;;7.70;99.90;;;;;;4990068;28;20272;-74
2022/10/12 05:53:50;;;;;;;;;;;7.60;99.90;;;;;;4989055;28;19941;-74
2022/10/12 05:56:15;;;;;;;;;;;7.60;99.90;;;;;;4989428;28;19930;-74
2022/10/12 05:58:41;;;;;;;;;;;7.60;99.90;;;;;;4989368;28;19972;-74
2022/10/12 06:01:07;;;;;;;;;;;7.60;99.90;;;;;;4973600;28;20016;-75
2022/10/12 06:03:33;;;;;;;;;;;7.60;99.90;;;;;;4990951;28;19929;-74
2022/10/12 06:05:59;;;;;;;;;;;7.60;99.90;;;;;;4989348;28;19948;-75
2022/10/12 06:08:25;;;;;;;;;;;7.60;99.90;;;;;;4990776;28;19983;-74
2022/10/12 06:10:51;;;;;;;;;;;7.50;99.90;;;;;;4989193;28;20228;-73
2022/10/12 06:13:18;;;;;;;;;;;7.50;99.90;;;;;;4990340;28;19945;-74
2022/10/12 06:15:47;;;;;;;;;;;7.50;99.90;;;;;;5005476;28;19979;-75
2022/10/12 06:18:13;;;;;;;;;;;7.50;99.90;;;;;;4990140;28;19929;-74
2022/10/12 06:20:39;;;;;;;;;;;7.50;99.90;;;;;;4989184;28;19930;-74
2022/10/12 06:23:05;;;;;;;;;;;7.40;99.90;;;;;;4990278;28;19932;-74
2022/10/12 06:25:30;;;;;;;;;;;7.40;99.90;;;;;;4973504;28;19926;-74
2022/10/12 06:27:56;;;;;;;;;;;7.50;99.90;;;;;;4972867;28;19983;-72
2022/10/12 06:30:21;;;;;;;;;;;7.50;99.90;;;;;;4973413;28;20016;-75
2022/10/12 06:32:47;;;;;;;;;;;7.40;99.90;;;;;;4990308;28;19926;-75
2022/10/12 06:35:12;;;;;;;;;;;7.40;99.90;;;;;;4973289;28;19936;-72
2022/10/12 06:37:38;;;;;;;;;;;7.40;99.90;;;;;;4973400;28;20351;-71
2022/10/12 06:40:04;;;;;;;;;;;7.50;99.90;;;;;;4989933;28;19925;-71
2022/10/12 06:42:30;;;;;;;;;;;7.60;99.90;;;;;;4990258;28;19926;-71
2022/10/12 06:44:56;;;;;;;;;;;7.60;99.90;;;;;;4989171;28;19933;-72
2022/10/12 06:47:21;;;;;;;;;;;7.60;99.90;;;;;;4990293;28;20404;-71
2022/10/12 06:49:47;;;;;;;;;;;7.60;99.90;;;;;;4990003;28;19991;-71
2022/10/12 06:52:12;;;;;;;;;;;7.70;99.90;;;;;;4988452;28;20059;-70
2022/10/12 06:54:40;;;;;;;;;;;7.70;99.90;;;;;;4989680;28;19933;-71
2022/10/12 06:57:05;;;;;;;;;;;7.80;99.90;;;;;;4988880;28;19926;-71
2022/10/12 06:59:31;;;;;;;;;;;7.90;99.90;;;;;;4989920;28;19932;-71
2022/10/12 07:01:56;;;;;;;;;;;8.10;99.90;;;;;;4989865;28;20385;-72
2022/10/12 07:04:22;;;;;;;;;;;8.30;99.90;;;;;;4990058;28;19936;-72
2022/10/12 07:06:48;;;;;;;;;;;8.40;99.90;;;;;;4988461;28;19922;-71
2022/10/12 07:09:14;;;;;;;;;;;8.60;99.90;;;;;;4990281;28;19926;-73
2022/10/12 07:11:40;;;;;;;;;;;8.70;99.90;;;;;;4989057;28;19926;-71
2022/10/12 07:14:06;;;;;;;;;;;8.90;99.90;;;;;;4973518;28;19974;-71
2022/10/12 07:16:31;;;;;;;;;;;9.00;99.90;;;;;;4990641;28;19936;-71
2022/10/12 07:18:57;;;;;;;;;;;9.20;99.90;;;;;;4989618;28;19926;-72
2022/10/12 07:21:22;;;;;;;;;;;9.80;99.90;;;;;;4989076;28;20382;-72
2022/10/12 07:23:48;;;;;;;;;;;10.50;99.90;;;;;;4989655;28;19926;-72
2022/10/12 07:26:14;;;;;;;;;;;11.30;99.90;;;;;;4988857;28;19926;-73
2022/10/12 07:28:39;;;;;;;;;;;12.00;99.90;;;;;;4988852;28;20051;-72
2022/10/12 07:31:06;;;;;;;;;;;12.60;99.90;;;;;;4986590;28;19926;-73
2022/10/12 07:33:33;;;;;;;;;;;12.80;99.90;;;;;;4985873;28;19928;-70
2022/10/12 07:35:58;;;;;;;;;;;13.00;99.90;;;;;;4987265;28;19992;-72
2022/10/12 07:38:25;;;;;;;;;;;13.40;99.90;;;;;;4989558;28;19969;-72
2022/10/12 07:40:50;;;;;;;;;;;14.10;99.90;;;;;;4987889;28;20375;-72
2022/10/12 07:43:16;;;;;;;;;;;14.70;99.90;;;;;;4987596;28;20199;-72
2022/10/12 07:45:42;;;;;;;;;;;15.10;99.90;;;;;;4988847;28;19986;-72
2022/10/12 07:48:08;;;;;;;;;;;15.50;99.90;;;;;;4987954;28;19933;-73
2022/10/12 07:50:33;;;;;;;;;;;16.00;99.90;;;;;;4988585;28;20013;-72
2022/10/12 07:52:59;;;;;;;;;;;16.80;99.90;;;;;;4988590;28;19932;-72
2022/10/12 07:55:24;;;;;;;;;;;17.40;99.90;;;;;;4988034;28;19933;-72
2022/10/12 07:57:50;;;;;;;;;;;17.60;99.90;;;;;;4988916;28;19933;-72
2022/10/12 08:00:16;;;;;;;;;;;17.50;99.90;;;;;;4989024;28;19926;-72
2022/10/12 08:02:42;;;;;;;;;;;17.90;99.90;;;;;;4987187;28;19926;-72
2022/10/12 08:05:08;;;;;;;;;;;18.50;99.90;;;;;;4971111;28;19998;-72
2022/10/12 08:07:34;;;;;;;;;;;18.90;97.90;;;;;;4991605;28;19933;-72
2022/10/12 08:09:59;;;;;;;;;;;19.40;98.10;;;;;;4990282;28;19926;-72
2022/10/12 08:12:25;;;;;;;;;;;19.80;98.40;;;;;;4991206;28;20347;-72
2022/10/12 08:14:50;;;;;;;;;;;20.20;97.90;;;;;;4992058;28;19951;-75
2022/10/12 08:17:16;;;;;;;;;;;20.50;96.30;;;;;;4990518;28;19926;-75
2022/10/12 08:19:42;;;;;;;;;;;20.40;94.70;;;;;;4992652;28;19925;-75
2022/10/12 08:22:07;;;;;;;;;;;19.80;95.40;;;;;;4991427;28;19926;-75
2022/10/12 08:24:34;;;;;;;;;;;20.00;97.90;;;;;;4992494;28;20014;-75
2022/10/12 08:26:59;;;;;;;;;;;20.30;96.00;;;;;;4991792;28;20280;-74
2022/10/12 08:29:25;;;;;;;;;;;20.50;96.40;;;;;;4991823;28;19926;-74
2022/10/12 08:31:51;;;;;;;;;;;21.10;95.40;;;;;;4990824;28;20366;-74
2022/10/12 08:34:17;;;;;;;;;;;21.50;95.40;;;;;;4974663;28;19933;-75
2022/10/12 08:36:43;;;;;;;;;;;21.90;93.70;;;;;;4991330;28;19930;-74
2022/10/12 08:39:08;;;;;;;;;;;22.20;93.80;;;;;;4992920;28;19932;-74
2022/10/12 08:41:49;;;;;;;;;;;22.20;93.10;;;;;;4993017;28;20363;-75
2022/10/12 08:44:21;;;;;;;;;;;21.60;92.80;;;;;;4991935;28;19945;-73
2022/10/12 08:46:46;;;;;;;;;;;21.10;93.00;;;;;;4991446;28;20381;-74
2022/10/12 08:49:20;;;;;;;;;;;20.70;93.60;;;;;;4991851;28;20020;-76
2022/10/12 08:51:50;;;;;;;;;;;20.20;94.00;;;;;;4992105;28;19926;-74
2022/10/12 08:54:18;;;;;;;;;;;19.40;93.80;;;;;;4991592;28;20402;-74
2022/10/12 08:56:44;;;;;;;;;;;18.80;94.80;;;;;;4974521;28;19926;-74
2022/10/12 08:59:15;;;;;;;;;;;18.20;95.20;;;;;;4974207;28;19948;-74
2022/10/12 09:01:51;;;;;;;;;;;17.70;95.60;;;;;;4990874;28;19926;-73
2022/10/12 09:04:17;;;;;;;;;;;17.30;95.90;;;;;;4991436;28;20032;-74
2022/10/12 09:06:47;;;;;;;;;;;16.90;96.40;;;;;;4991605;28;20356;-71
2022/10/12 09:09:16;;;;;;;;;;;16.50;96.70;;;;;;4990279;28;19956;-74
2022/10/12 09:11:48;;;;;;;;;;;16.20;97.20;;;;;;4991484;28;19933;-73
2022/10/12 09:14:26;;;;;;;;;;;15.90;97.30;;;;;;4990080;28;19932;-73
2022/10/12 09:16:54;;;;;;;;;;;15.60;98.00;;;;;;5021128;28;19971;-77
2022/10/12 09:19:21;;;;;;;;;;;15.50;98.20;;;;;;4990199;28;19930;-76
2022/10/12 09:21:47;;;;;;;;;;;15.40;98.50;;;;;;5006075;28;19926;-75
2022/10/12 09:24:22;;;;;;;;;;;15.30;99.10;;;;;;4989814;28;19999;-74
2022/10/12 09:26:49;;;;;;;;;;;15.20;99.20;;;;;;4991091;28;20016;-76
2022/10/12 09:29:18;;;;;;;;;;;15.10;99.50;;;;;;4991130;28;19926;-77
2022/10/12 09:32:03;;;;;;;;;;;15.10;99.70;;;;;;4990312;28;20029;-79
2022/10/12 09:34:29;;;;;;;;;;;15.10;99.70;;;;;;4989846;28;19925;-75
2022/10/12 09:36:54;;;;;;;;;;;15.10;99.80;;;;;;4989427;28;19933;-75
2022/10/12 09:39:22;;;;;;;;;;;15.20;99.90;;;;;;4990662;28;19926;-77
2022/10/12 09:41:48;;;;;;;;;;;15.10;99.50;;;;;;4973881;28;19933;-75
2022/10/12 09:44:32;;;;;;;;;;;15.10;99.50;;;;;;4990991;28;19979;-71
2022/10/12 09:46:59;;;;;;;;;;;15.00;99.40;;;;;;5022694;28;19934;-72
2022/10/12 09:49:40;;;;;;;;;;;14.90;99.60;;;;;;4989693;28;20013;-72
2022/10/12 09:52:06;;;;;;;;;;;15.00;99.70;;;;;;4989317;28;20367;-72
2022/10/12 09:54:32;;;;;;;;;;;15.00;99.40;;;;;;4991041;28;19933;-71
2022/10/12 09:56:57;;;;;;;;;;;15.00;99.50;;;;;;4990909;28;19933;-69
2022/10/12 09:59:31;;;;;;;;;;;15.00;99.90;;;;;;4990694;28;20485;-72
2022/10/12 10:02:02;;;;;;;;;;;15.00;99.10;;;;;;4991036;28;19930;-70
2022/10/12 10:04:28;;;;;;;;;;;15.00;99.50;;;;;;4989480;28;19930;-71
2022/10/12 10:06:54;;;;;;;;;;;15.00;99.70;;;;;;4990976;28;19932;-70
2022/10/12 10:09:26;;;;;;;;;;;14.90;99.70;;;;;;4990628;28;19926;-70
2022/10/12 10:11:51;;;;;;;;;;;14.90;99.30;;;;;;4990703;28;19930;-70
2022/10/12 10:14:17;;;;;;;;;;;14.90;99.00;;;;;;4990438;28;20339;-69
2022/10/12 10:16:50;;;;;;;;;;;14.90;99.00;;;;;;4973456;28;19976;-70
2022/10/12 10:19:19;;;;;;;;;;;14.90;99.20;;;;;;4990295;28;19926;-70
2022/10/12 10:21:45;;;;;;;;;;;14.90;99.40;;;;;;4989710;28;20363;-68
2022/10/12 10:24:27;;;;;;;;;;;15.00;99.50;;;;;;4989844;28;19987;-72
2022/10/12 10:26:57;;;;;;;;;;;15.00;99.20;;;;;;4990212;28;19933;-69
2022/10/12 10:29:29;;;;;;;;;;;15.10;99.00;;;;;;4989173;28;20339;-72
2022/10/12 10:32:14;;;;;;;;;;;15.00;99.30;;;;;;4989459;28;19937;-74
2022/10/12 10:35:11;;;;;;;;;;;15.10;99.60;;;;;;4990467;28;19976;-75
2022/10/12 10:37:56;;;;;;;;;;;15.10;99.60;;;;;;4990416;28;19920;-75
2022/10/12 10:40:40;;;;;;;;;;;15.20;99.50;;;;;;4990326;28;19976;-76
2022/10/12 10:43:29;;;;;;;;;;;15.30;99.00;;;;;;4989998;28;19924;-74
2022/10/12 10:46:14;;;;;;;;;;;15.40;99.30;;;;;;4989736;28;19980;-73
2022/10/12 10:48:55;;;;;;;;;;;15.40;99.00;;;;;;5021970;28;19935;-72
2022/10/12 10:51:21;;;;;;;;;;;15.50;99.30;;;;;;4988614;28;20383;-73
2022/10/12 10:53:48;;;;;;;;;;;15.50;98.90;;;;;;4972356;28;19937;-74
2022/10/12 10:56:14;;;;;;;;;;;15.50;99.20;;;;;;4988820;28;19926;-74
2022/10/12 10:58:47;;;;;;;;;;;15.50;99.00;;;;;;4989720;28;20448;-74
2022/10/12 11:01:20;;;;;;;;;;;15.50;99.20;;;;;;5021748;28;19999;-75
2022/10/12 11:03:45;;;;;;;;;;;15.60;99.40;;;;;;4989858;28;19925;-73
2022/10/12 11:06:18;;;;;;;;;;;15.70;98.90;;;;;;4988696;28;19926;-71
2022/10/12 11:08:44;;;;;;;;;;;15.70;99.00;;;;;;4989983;28;19979;-72
2022/10/12 11:11:12;;;;;;;;;;;15.70;99.10;;;;;;4988720;28;20331;-72
2022/10/12 11:13:40;;;;;;;;;;;15.70;99.00;;;;;;4989610;28;20067;-72
2022/10/12 11:16:12;;;;;;;;;;;15.70;99.40;;;;;;4989687;28;19933;-73
2022/10/12 11:18:46;;;;;;;;;;;15.70;99.00;;;;;;4989463;28;19926;-72
2022/10/12 11:21:13;;;;;;;;;;;15.70;99.20;;;;;;4990004;28;20279;-73
2022/10/12 11:23:49;;;;;;;;;;;15.70;99.00;;;;;;4989168;28;19933;-72
2022/10/12 11:26:19;;;;;;;;;;;15.80;99.20;;;;;;4991093;28;19925;-73
2022/10/12 11:28:45;;;;;;;;;;;15.80;99.00;;;;;;4991283;28;19926;-72
2022/10/12 11:31:20;;;;;;;;;;;15.80;99.00;;;;;;4988731;28;19933;-72
2022/10/12 11:33:47;;;;;;;;;;;15.80;99.00;;;;;;5021166;28;19987;-73
2022/10/12 11:36:15;;;;;;;;;;;15.90;98.90;;;;;;4988504;28;19929;-73
2022/10/12 11:38:45;;;;;;;;;;;15.90;98.80;;;;;;4989108;28;20034;-72
2022/10/12 11:41:14;;;;;;;;;;;15.80;99.00;;;;;;4990021;28;19930;-73
2022/10/12 11:43:43;;;;;;;;;;;15.80;98.80;;;;;;4991181;28;19930;-72
2022/10/12 11:46:12;;;;;;;;;;;15.80;98.30;;;;;;4993088;28;20351;-71
2022/10/12 11:48:57;;;;;;;;;;;15.80;98.30;;;;;;4992457;28;19984;-71
2022/10/12 11:51:23;;;;;;;;;;;15.80;98.70;;;;;;4991675;28;19929;-71
2022/10/12 11:53:51;;;;;;;;;;;15.80;98.10;;;;;;4959140;28;20426;-71
2022/10/12 11:56:36;;;;;;;;;;;15.70;98.20;;;;;;4975025;28;19933;-72
2022/10/12 11:59:08;;;;;;;;;;;15.70;98.00;;;;;;4991754;28;20332;-71
2022/10/12 12:01:42;;;;;;;;;;;15.80;98.40;;;;;;5023237;28;19926;-69
2022/10/12 12:04:14;;;;;;;;;;;15.90;98.10;;;;;;4992338;28;19989;-71
2022/10/12 12:06:51;;;;;;;;;;;15.90;98.30;;;;;;4991586;28;19926;-72
2022/10/12 12:09:18;;;;;;;;;;;16.00;97.20;;;;;;4991269;28;19926;-73
2022/10/12 12:11:44;;;;;;;;;;;16.00;97.70;;;;;;4991963;28;19921;-73
2022/10/12 12:14:24;;;;;;;;;;;16.00;97.10;;;;;;4992493;28;19936;-72
2022/10/12 12:17:08;;;;;;;;;;;15.90;96.80;;;;;;4991574;28;19941;-73
2022/10/12 12:19:35;;;;;;;;;;;15.90;97.10;;;;;;4991888;28;19926;-71
2022/10/12 12:22:15;;;;;;;;;;;15.90;97.10;;;;;;4991391;28;20092;-73
2022/10/12 12:24:50;;;;;;;;;;;15.90;97.10;;;;;;4992265;28;19949;-71
2022/10/12 12:27:27;;;;;;;;;;;15.90;96.20;;;;;;4992698;28;19922;-75
2022/10/12 12:29:53;;;;;;;;;;;15.90;96.50;;;;;;4991370;28;20377;-76
2022/10/12 12:32:19;;;;;;;;;;;15.90;96.30;;;;;;4991334;28;19929;-70
2022/10/12 12:35:04;;;;;;;;;;;16.00;96.00;;;;;;4992027;28;19926;-75
2022/10/12 12:37:31;;;;;;;;;;;16.00;96.20;;;;;;4991262;28;19925;-75
2022/10/12 12:39:58;;;;;;;;;;;16.00;96.30;;;;;;4991377;28;20381;-75
2022/10/12 12:42:26;;;;;;;;;;;16.00;95.90;;;;;;4992641;28;19926;-75
2022/10/12 12:44:51;;;;;;;;;;;16.00;95.70;;;;;;4992448;28;19979;-74
2022/10/12 12:47:19;;;;;;;;;;;16.00;96.10;;;;;;4992523;28;19925;-74
2022/10/12 12:49:47;;;;;;;;;;;16.00;95.00;;;;;;4994231;28;19926;-74
2022/10/12 12:52:19;;;;;;;;;;;15.90;95.80;;;;;;4996069;28;19925;-75
2022/10/12 12:54:53;;;;;;;;;;;15.90;96.10;;;;;;4990859;28;19926;-74
2022/10/12 12:57:32;;;;;;;;;;;15.90;96.20;;;;;;4992351;28;19933;-75
2022/10/12 13:00:16;;;;;;;;;;;15.80;96.00;;;;;;4992407;28;19926;-75
2022/10/12 13:03:00;;;;;;;;;;;15.80;94.80;;;;;;4991745;28;19969;-73
2022/10/12 13:05:32;;;;;;;;;;;15.80;95.40;;;;;;4991096;28;19926;-74
2022/10/12 13:08:06;;;;;;;;;;;15.70;95.90;;;;;;4992066;28;19991;-74
2022/10/12 13:11:01;;;;;;;;;;;15.80;96.00;;;;;;4990655;28;19930;-74
2022/10/12 13:13:27;;;;;;;;;;;15.80;95.80;;;;;;5027459;28;19925;-74
2022/10/12 13:16:02;;;;;;;;;;;15.70;96.00;;;;;;4990489;28;19937;-75
2022/10/12 13:18:30;;;;;;;;;;;15.70;95.80;;;;;;4974544;28;20099;-74
2022/10/12 13:20:56;;;;;;;;;;;15.70;95.80;;;;;;4991546;28;20290;-75
2022/10/12 13:23:23;;;;;;;;;;;15.70;95.80;;;;;;4990977;28;19926;-74
2022/10/12 13:25:51;;;;;;;;;;;15.70;96.20;;;;;;4989984;28;19925;-73
2022/10/12 13:28:20;;;;;;;;;;;15.70;96.10;;;;;;4990526;28;20348;-74
2022/10/12 13:30:51;;;;;;;;;;;15.60;96.40;;;;;;4974154;28;19992;-74
2022/10/12 13:33:29;;;;;;;;;;;15.60;96.60;;;;;;4991503;28;19925;-74
2022/10/12 13:35:58;;;;;;;;;;;15.60;96.80;;;;;;4991381;28;20539;-73
2022/10/12 13:38:25;;;;;;;;;;;15.60;96.70;;;;;;4991340;28;20306;-73
2022/10/12 13:41:09;;;;;;;;;;;15.60;96.70;;;;;;4991289;28;19925;-73
2022/10/12 13:43:39;;;;;;;;;;;15.60;96.60;;;;;;4991851;28;19926;-74
2022/10/12 13:46:05;;;;;;;;;;;15.60;96.20;;;;;;5006636;28;19926;-73
2022/10/12 13:48:30;;;;;;;;;;;15.50;95.90;;;;;;4991373;28;20324;-73
2022/10/12 13:50:57;;;;;;;;;;;15.50;95.80;;;;;;4989704;28;20449;-73
2022/10/12 13:53:23;;;;;;;;;;;15.40;96.10;;;;;;4990815;28;19929;-74
2022/10/12 13:55:54;;;;;;;;;;;15.40;96.00;;;;;;4990508;28;20375;-74
2022/10/12 13:58:23;;;;;;;;;;;15.40;96.20;;;;;;4990455;28;19938;-73
2022/10/12 14:00:48;;;;;;;;;;;15.40;96.20;;;;;;4989531;28;19951;-73
2022/10/12 14:03:14;;;;;;;;;;;15.40;96.60;;;;;;4990199;28;19926;-74
2022/10/12 14:05:44;;;;;;;;;;;15.40;96.60;;;;;;4989682;28;20372;-73
2022/10/12 14:08:13;;;;;;;;;;;15.40;96.40;;;;;;4989738;28;19979;-75
2022/10/12 14:10:40;;;;;;;;;;;15.40;96.70;;;;;;4991192;28;19925;-73
2022/10/12 14:13:08;;;;;;;;;;;15.40;96.70;;;;;;4990001;28;19933;-73
2022/10/12 14:15:38;;;;;;;;;;;15.40;97.10;;;;;;4999009;28;19932;-72
2022/10/12 14:18:04;;;;;;;;;;;15.40;96.90;;;;;;4994226;28;19926;-73
2022/10/12 14:20:30;;;;;;;;;;;15.40;96.70;;;;;;4990859;28;19929;-73
2022/10/12 14:22:59;;;;;;;;;;;15.40;96.60;;;;;;4990717;28;20022;-74
2022/10/12 14:25:29;;;;;;;;;;;15.40;96.80;;;;;;4989907;28;20255;-74
2022/10/12 14:28:01;;;;;;;;;;;15.30;96.70;;;;;;4990551;28;19925;-74
2022/10/12 14:30:32;;;;;;;;;;;15.30;97.00;;;;;;4957256;28;19925;-75